createdAt,value
2022-08-20T00:00:00.881Z,22.18
2022-08-20T00:02:27.547Z,22.18
2022-08-20T00:04:54.286Z,22.23
2022-08-20T00:07:20.913Z,22.18
2022-08-20T00:09:47.563Z,22.21
2022-08-20T00:12:16.777Z,22.41
2022-08-20T00:14:43.539Z,22.35
2022-08-20T00:17:10.229Z,22.20
2022-08-20T00:19:36.930Z,22.33
2022-08-20T00:22:04.173Z,22.37
2022-08-20T00:24:30.867Z,22.36
2022-08-20T00:26:57.483Z,22.48
2022-08-20T00:29:24.143Z,22.47
2022-08-20T00:31:51.428Z,22.64
2022-08-20T00:34:18.294Z,22.85
2022-08-20T00:36:45.195Z,22.76
2022-08-20T00:39:11.922Z,22.69
2022-08-20T00:41:38.757Z,22.48
2022-08-20T00:44:23.849Z,22.75
2022-08-20T00:46:52.778Z,22.57
2022-08-20T00:49:24.881Z,22.63
2022-08-20T00:52:17.548Z,22.60
2022-08-20T00:54:51.821Z,22.75
2022-08-20T00:57:26.040Z,22.90
2022-08-20T00:59:53.587Z,22.67
2022-08-20T01:02:23.038Z,22.63
2022-08-20T01:04:56.168Z,22.77
2022-08-20T01:07:32.549Z,22.72
2022-08-20T01:10:07.085Z,22.59
2022-08-20T01:12:33.788Z,22.70
2022-08-20T01:15:02.557Z,22.70
2022-08-20T01:17:34.427Z,22.91
2022-08-20T01:20:09.948Z,22.84
2022-08-20T01:23:27.967Z,22.80
2022-08-20T01:26:15.113Z,22.80
2022-08-20T01:28:47.132Z,22.68
2022-08-20T01:31:21.194Z,22.61
2022-08-20T01:33:49.476Z,22.55
2022-08-20T01:36:18.392Z,22.64
2022-08-20T01:38:50.279Z,22.80
2022-08-20T01:41:28.606Z,22.95
2022-08-20T01:43:58.489Z,22.77
2022-08-20T01:46:33.088Z,22.71
2022-08-20T01:49:32.240Z,22.79
2022-08-20T01:52:05.710Z,22.83
2022-08-20T01:54:33.128Z,22.75
2022-08-20T01:57:05.993Z,22.87
2022-08-20T01:59:32.770Z,22.61
2022-08-20T02:02:00.440Z,22.40
2022-08-20T02:04:27.414Z,22.66
2022-08-20T02:06:58.187Z,22.57
2022-08-20T02:09:30.446Z,22.40
2022-08-20T02:11:58.477Z,22.56
2022-08-20T02:14:26.531Z,22.66
2022-08-20T02:16:54.625Z,22.50
2022-08-20T02:19:51.199Z,22.64
2022-08-20T02:22:30.811Z,22.74
2022-08-20T02:24:57.632Z,22.57
2022-08-20T02:27:24.437Z,22.63
2022-08-20T02:29:52.948Z,22.68
2022-08-20T02:32:32.125Z,22.76
2022-08-20T02:35:04.129Z,22.57
2022-08-20T02:37:31.449Z,22.58
2022-08-20T02:39:58.721Z,22.50
2022-08-20T02:42:26.491Z,22.44
2022-08-20T02:44:54.447Z,22.51
2022-08-20T02:47:21.124Z,22.48
2022-08-20T02:49:49.486Z,22.39
2022-08-20T02:52:16.206Z,22.42
2022-08-20T02:54:42.933Z,22.49
2022-08-20T02:57:15.304Z,22.46
2022-08-20T02:59:44.338Z,22.44
2022-08-20T03:02:12.131Z,22.42
2022-08-20T03:04:39.059Z,22.41
2022-08-20T03:07:06.616Z,22.49
2022-08-20T03:09:34.291Z,22.29
2022-08-20T03:12:00.977Z,22.36
2022-08-20T03:14:27.624Z,22.30
2022-08-20T03:16:54.700Z,22.33
2022-08-20T03:19:21.401Z,22.23
2022-08-20T03:21:48.061Z,22.28
2022-08-20T03:24:15.579Z,22.21
2022-08-20T03:26:43.485Z,22.42
2022-08-20T03:29:10.449Z,22.34
2022-08-20T03:31:37.994Z,22.21
2022-08-20T03:34:05.868Z,22.33
2022-08-20T03:36:32.725Z,22.24
2022-08-20T03:39:04.876Z,22.34
2022-08-20T03:41:32.299Z,22.23
2022-08-20T03:43:59.070Z,22.43
2022-08-20T03:46:26.148Z,22.35
2022-08-20T03:48:59.889Z,22.34
2022-08-20T03:51:31.090Z,22.75
2022-08-20T03:53:58.033Z,23.09
2022-08-20T03:56:25.412Z,22.86
2022-08-20T03:58:52.356Z,22.66
2022-08-20T04:01:45.031Z,22.65
2022-08-20T04:04:05.840Z,23.01
2022-08-20T04:06:39.125Z,23.55
2022-08-20T04:09:07.131Z,24.32
2022-08-20T04:11:37.306Z,24.62
2022-08-20T04:14:03.979Z,23.95
2022-08-20T04:16:33.594Z,23.55
2022-08-20T04:19:02.203Z,23.46
2022-08-20T04:21:33.029Z,23.42
2022-08-20T04:24:00.912Z,23.46
2022-08-20T04:26:27.779Z,24.25
2022-08-20T04:28:55.917Z,24.36
2022-08-20T04:31:33.132Z,23.75
2022-08-20T04:34:05.127Z,24.12
2022-08-20T04:36:31.875Z,23.52
2022-08-20T04:38:58.759Z,23.43
2022-08-20T04:41:25.572Z,23.89
2022-08-20T04:43:54.382Z,24.08
2022-08-20T04:46:23.908Z,24.33
2022-08-20T04:48:50.857Z,24.53
2022-08-20T04:51:18.875Z,24.69
2022-08-20T04:53:52.091Z,24.49
2022-08-20T04:56:19.844Z,24.82
2022-08-20T04:58:48.841Z,24.39
2022-08-20T05:01:16.206Z,23.76
2022-08-20T05:03:43.092Z,23.64
2022-08-20T05:06:11.850Z,23.74
2022-08-20T05:08:39.834Z,24.02
2022-08-20T05:11:30.148Z,24.00
2022-08-20T05:13:56.188Z,23.93
2022-08-20T05:16:24.556Z,24.33
2022-08-20T05:18:52.428Z,24.30
2022-08-20T05:21:20.892Z,24.48
2022-08-20T05:23:47.663Z,24.77
2022-08-20T05:26:15.940Z,24.78
2022-08-20T05:28:57.935Z,24.65
2022-08-20T05:31:31.889Z,25.32
2022-08-20T05:34:10.777Z,25.03
2022-08-20T05:36:45.150Z,25.42
2022-08-20T05:39:14.533Z,24.57
2022-08-20T05:41:41.256Z,24.54
2022-08-20T05:44:10.936Z,24.75
2022-08-20T05:46:41.048Z,24.43
2022-08-20T05:49:13.728Z,24.93
2022-08-20T05:51:40.741Z,24.86
2022-08-20T05:54:07.860Z,24.96
2022-08-20T05:56:35.031Z,25.27
2022-08-20T05:59:06.035Z,25.16
2022-08-20T06:01:34.151Z,25.53
2022-08-20T06:04:19.996Z,25.43
2022-08-20T06:06:47.752Z,25.27
2022-08-20T06:09:27.923Z,25.22
2022-08-20T06:11:59.593Z,25.50
2022-08-20T06:14:26.628Z,25.36
2022-08-20T06:16:57.973Z,25.69
2022-08-20T06:19:27.264Z,25.69
2022-08-20T06:21:59.636Z,26.11
2022-08-20T06:24:26.924Z,26.06
2022-08-20T06:26:59.957Z,26.23
2022-08-20T06:29:28.024Z,26.12
2022-08-20T06:31:56.015Z,26.23
2022-08-20T06:34:24.299Z,26.03
2022-08-20T06:36:50.922Z,25.89
2022-08-20T06:39:17.713Z,26.00
2022-08-20T06:41:45.031Z,26.03
2022-08-20T06:44:11.745Z,26.07
2022-08-20T06:46:38.624Z,25.87
2022-08-20T06:49:07.492Z,25.98
2022-08-20T06:51:37.285Z,25.88
2022-08-20T06:54:05.322Z,26.31
2022-08-20T06:56:33.417Z,26.84
2022-08-20T06:59:02.920Z,26.65
2022-08-20T07:01:29.697Z,26.40
2022-08-20T07:03:59.657Z,26.55
2022-08-20T07:06:27.368Z,27.05
2022-08-20T07:08:55.833Z,27.18
2022-08-20T07:11:27.839Z,27.21
2022-08-20T07:13:57.217Z,27.00
2022-08-20T07:16:24.642Z,26.82
2022-08-20T07:18:51.452Z,27.13
2022-08-20T07:21:18.471Z,27.19
2022-08-20T07:23:45.369Z,26.91
2022-08-20T07:26:13.176Z,27.21
2022-08-20T07:28:39.879Z,27.17
2022-08-20T07:31:25.081Z,27.01
2022-08-20T07:33:51.734Z,27.46
2022-08-20T07:36:20.340Z,27.30
2022-08-20T07:38:48.201Z,27.89
2022-08-20T07:41:15.241Z,28.43
2022-08-20T07:43:45.615Z,28.24
2022-08-20T07:46:20.859Z,28.30
2022-08-20T07:48:50.342Z,29.09
2022-08-20T07:51:22.332Z,29.10
2022-08-20T07:53:50.369Z,28.49
2022-08-20T07:56:21.658Z,28.72
2022-08-20T07:58:52.298Z,28.46
2022-08-20T08:01:26.387Z,28.70
2022-08-20T08:03:53.316Z,28.63
2022-08-20T08:06:30.486Z,29.01
2022-08-20T08:09:14.218Z,29.32
2022-08-20T08:11:47.520Z,28.76
2022-08-20T08:14:16.931Z,28.95
2022-08-20T08:16:45.413Z,29.15
2022-08-20T08:19:15.775Z,28.53
2022-08-20T08:21:44.268Z,28.98
2022-08-20T08:24:14.348Z,29.38
2022-08-20T08:26:44.100Z,29.61
2022-08-20T08:29:12.114Z,29.43
2022-08-20T08:31:40.933Z,29.96
2022-08-20T08:34:08.035Z,29.97
2022-08-20T08:36:34.844Z,30.17
2022-08-20T08:39:01.572Z,30.28
2022-08-20T08:41:40.001Z,29.62
2022-08-20T08:44:12.822Z,28.96
2022-08-20T08:46:43.005Z,29.74
2022-08-20T08:49:16.531Z,30.64
2022-08-20T08:51:50.178Z,30.99
2022-08-20T08:54:22.135Z,31.19
2022-08-20T08:56:50.280Z,30.19
2022-08-20T08:59:18.843Z,30.65
2022-08-20T09:01:57.255Z,30.69
2022-08-20T09:04:32.149Z,31.36
2022-08-20T09:06:59.814Z,31.77
2022-08-20T09:09:31.508Z,32.28
2022-08-20T09:12:08.479Z,31.50
2022-08-20T09:14:36.222Z,32.29
2022-08-20T09:17:03.937Z,32.35
2022-08-20T09:19:31.171Z,32.01
2022-08-20T09:21:58.005Z,31.88
2022-08-20T09:24:25.476Z,31.50
2022-08-20T09:26:52.061Z,31.39
2022-08-20T09:29:18.778Z,31.54
2022-08-20T09:31:46.453Z,31.75
2022-08-20T09:34:13.570Z,31.52
2022-08-20T09:36:41.057Z,31.37
2022-08-20T09:39:07.799Z,31.15
2022-08-20T09:41:34.736Z,30.93
2022-08-20T09:44:02.012Z,31.00
2022-08-20T09:46:28.783Z,31.02
2022-08-20T09:48:55.597Z,31.13
2022-08-20T09:51:22.877Z,31.20
2022-08-20T09:53:50.177Z,31.27
2022-08-20T09:56:17.217Z,31.80
2022-08-20T09:58:57.993Z,31.85
2022-08-20T10:01:26.625Z,32.59
2022-08-20T10:03:53.300Z,32.40
2022-08-20T10:06:20.785Z,32.42
2022-08-20T10:08:48.451Z,32.06
2022-08-20T10:11:15.711Z,32.26
2022-08-20T10:13:42.351Z,32.59
2022-08-20T10:16:09.074Z,32.43
2022-08-20T10:18:37.062Z,32.33
2022-08-20T10:21:08.575Z,32.07
2022-08-20T10:23:35.202Z,31.34
2022-08-20T10:26:01.985Z,31.83
2022-08-20T10:28:28.635Z,31.63
2022-08-20T10:30:55.357Z,31.50
2022-08-20T10:33:22.003Z,31.45
2022-08-20T10:35:48.622Z,31.51
2022-08-20T10:38:15.916Z,31.74
2022-08-20T10:40:42.638Z,32.74
2022-08-20T10:43:18.879Z,32.63
2022-08-20T10:45:45.527Z,31.44
2022-08-20T10:48:12.238Z,31.74
2022-08-20T10:50:39.003Z,31.74
2022-08-20T10:53:05.727Z,31.84
2022-08-20T10:55:32.494Z,31.75
2022-08-20T10:57:59.164Z,31.88
2022-08-20T11:00:26.158Z,32.11
2022-08-20T11:02:52.835Z,32.17
2022-08-20T11:05:19.536Z,31.79
2022-08-20T11:07:50.549Z,31.80
2022-08-20T11:10:27.209Z,31.24
2022-08-20T11:12:54.739Z,31.41
2022-08-20T11:15:21.802Z,31.71
2022-08-20T11:17:48.522Z,31.35
2022-08-20T11:20:18.592Z,31.47
2022-08-20T11:22:45.790Z,30.99
2022-08-20T11:25:13.163Z,31.26
2022-08-20T11:27:44.238Z,31.26
2022-08-20T11:30:15.719Z,31.39
2022-08-20T11:32:42.467Z,31.46
2022-08-20T11:35:38.293Z,31.02
2022-08-20T11:37:59.300Z,31.09
2022-08-20T11:40:27.959Z,31.05
2022-08-20T11:43:13.805Z,31.36
2022-08-20T11:45:41.932Z,31.65
2022-08-20T11:48:08.671Z,31.21
2022-08-20T11:50:35.324Z,31.13
2022-08-20T11:53:01.982Z,31.27
2022-08-20T11:55:30.317Z,31.68
2022-08-20T11:58:00.021Z,31.94
2022-08-20T12:00:31.967Z,31.91
2022-08-20T12:03:05.328Z,31.14
2022-08-20T12:05:33.417Z,31.32
2022-08-20T12:08:01.604Z,31.40
2022-08-20T12:10:29.791Z,31.32
2022-08-20T12:12:56.499Z,31.34
2022-08-20T12:15:24.306Z,31.43
2022-08-20T12:17:51.067Z,31.55
2022-08-20T12:20:17.743Z,31.27
2022-08-20T12:22:44.807Z,31.11
2022-08-20T12:25:13.327Z,31.74
2022-08-20T12:27:40.703Z,32.13
2022-08-20T12:30:17.265Z,32.21
2022-08-20T12:32:44.637Z,31.83
2022-08-20T12:35:12.846Z,31.55
2022-08-20T12:37:40.719Z,31.82
2022-08-20T12:40:11.227Z,31.47
2022-08-20T12:42:38.026Z,31.30
2022-08-20T12:45:06.164Z,30.97
2022-08-20T12:47:38.774Z,31.31
2022-08-20T12:50:09.052Z,31.71
2022-08-20T12:52:36.185Z,31.57
2022-08-20T12:55:04.985Z,31.68
2022-08-20T12:57:41.745Z,31.74
2022-08-20T13:00:15.656Z,31.75
2022-08-20T13:02:42.547Z,31.25
2022-08-20T13:05:11.830Z,31.22
2022-08-20T13:07:39.326Z,30.82
2022-08-20T13:10:08.553Z,30.99
2022-08-20T13:12:35.697Z,30.85
2022-08-20T13:15:02.893Z,30.34
2022-08-20T13:17:38.942Z,30.38
2022-08-20T13:20:13.253Z,30.85
2022-08-20T13:22:40.959Z,31.06
2022-08-20T13:25:09.127Z,31.24
2022-08-20T13:27:38.452Z,31.46
2022-08-20T13:30:07.385Z,31.15
2022-08-20T13:32:34.514Z,31.15
2022-08-20T13:35:01.337Z,31.58
2022-08-20T13:37:29.314Z,31.60
2022-08-20T13:39:57.389Z,31.58
2022-08-20T13:42:25.130Z,31.89
2022-08-20T13:44:52.316Z,31.22
2022-08-20T13:47:28.506Z,31.33
2022-08-20T13:49:57.697Z,30.84
2022-08-20T13:52:25.593Z,30.53
2022-08-20T13:54:53.480Z,30.81
2022-08-20T13:57:21.458Z,30.57
2022-08-20T13:59:50.408Z,30.99
2022-08-20T14:02:18.008Z,30.61
2022-08-20T14:04:46.097Z,30.82
2022-08-20T14:07:23.256Z,30.97
2022-08-20T14:09:54.189Z,30.74
2022-08-20T14:12:23.215Z,30.96
2022-08-20T14:14:51.798Z,30.98
2022-08-20T14:17:20.182Z,30.96
2022-08-20T14:19:48.876Z,30.39
2022-08-20T14:22:17.805Z,30.60
2022-08-20T14:24:48.914Z,30.80
2022-08-20T14:27:18.348Z,30.90
2022-08-20T14:29:46.910Z,30.74
2022-08-20T14:32:15.030Z,31.15
2022-08-20T14:34:41.947Z,30.27
2022-08-20T14:37:23.762Z,30.77
2022-08-20T14:39:52.825Z,30.67
2022-08-20T14:42:20.666Z,30.38
2022-08-20T14:44:47.319Z,30.30
2022-08-20T14:47:14.426Z,30.36
2022-08-20T14:49:41.473Z,30.47
2022-08-20T14:52:08.541Z,30.12
2022-08-20T14:54:35.854Z,30.05
2022-08-20T14:57:03.124Z,29.80
2022-08-20T14:59:30.332Z,29.83
2022-08-20T15:01:57.389Z,29.35
2022-08-20T15:04:24.399Z,29.47
2022-08-20T15:06:54.726Z,29.82
2022-08-20T15:09:21.457Z,29.94
2022-08-20T15:11:48.172Z,29.76
2022-08-20T15:14:15.160Z,29.75
2022-08-20T15:16:45.244Z,29.75
2022-08-20T15:19:12.007Z,29.83
2022-08-20T15:21:44.757Z,30.11
2022-08-20T15:24:19.053Z,29.93
2022-08-20T15:26:46.037Z,30.15
2022-08-20T15:29:13.015Z,29.17
2022-08-20T15:31:49.917Z,29.57
2022-08-20T15:34:18.443Z,29.50
2022-08-20T15:36:45.811Z,29.12
2022-08-20T15:39:12.461Z,29.50
2022-08-20T15:41:39.279Z,29.32
2022-08-20T15:44:06.176Z,28.90
2022-08-20T15:46:37.724Z,29.43
2022-08-20T15:49:12.447Z,29.55
2022-08-20T15:51:43.132Z,28.87
2022-08-20T15:54:30.090Z,28.92
2022-08-20T15:57:07.297Z,28.86
2022-08-20T16:00:02.077Z,28.80
2022-08-20T16:02:51.944Z,28.85
2022-08-20T16:05:37.534Z,29.11
2022-08-20T16:08:41.964Z,29.00
2022-08-20T16:11:34.847Z,29.13
2022-08-20T16:14:29.761Z,29.25
2022-08-20T16:17:05.554Z,29.23
2022-08-20T16:19:54.406Z,29.17
2022-08-20T16:22:22.320Z,29.01
2022-08-20T16:24:50.155Z,28.51
2022-08-20T16:27:31.703Z,28.54
2022-08-20T16:30:04.373Z,28.82
2022-08-20T16:32:33.943Z,28.86
2022-08-20T16:35:16.570Z,28.51
2022-08-20T16:38:04.691Z,28.50
2022-08-20T16:40:39.153Z,28.65
2022-08-20T16:43:07.127Z,28.69
2022-08-20T16:46:00.350Z,28.60
2022-08-20T16:48:38.734Z,28.58
2022-08-20T16:51:17.478Z,28.38
2022-08-20T16:53:44.198Z,28.10
2022-08-20T16:56:10.922Z,28.30
2022-08-20T16:58:37.579Z,28.20
2022-08-20T17:01:08.524Z,27.95
2022-08-20T17:03:40.486Z,28.13
2022-08-20T17:06:41.642Z,27.98
2022-08-20T17:09:12.261Z,27.86
2022-08-20T17:11:41.841Z,27.71
2022-08-20T17:14:18.112Z,27.52
2022-08-20T17:16:48.829Z,27.79
2022-08-20T17:19:30.662Z,27.53
2022-08-20T17:22:10.353Z,27.52
2022-08-20T17:24:38.538Z,27.69
2022-08-20T17:27:10.644Z,27.63
2022-08-20T17:29:50.284Z,27.74
2022-08-20T17:32:22.837Z,27.59
2022-08-20T17:34:52.321Z,27.35
2022-08-20T17:37:27.254Z,27.31
2022-08-20T17:40:16.064Z,27.01
2022-08-20T17:43:09.290Z,26.99
2022-08-20T17:45:45.924Z,27.27
2022-08-20T17:48:28.426Z,27.22
2022-08-20T17:50:57.878Z,27.06
2022-08-20T17:53:33.813Z,27.08
2022-08-20T17:56:16.109Z,27.15
2022-08-20T17:58:55.009Z,26.55
2022-08-20T18:01:23.368Z,26.71
2022-08-20T18:03:51.804Z,26.51
2022-08-20T18:06:37.318Z,26.46
2022-08-20T18:09:17.262Z,26.43
2022-08-20T18:12:01.680Z,26.52
2022-08-20T18:14:47.122Z,25.96
2022-08-20T18:17:35.740Z,25.98
2022-08-20T18:20:17.338Z,26.47
2022-08-20T18:23:11.404Z,26.11
2022-08-20T18:25:55.305Z,25.92
2022-08-20T18:28:28.216Z,25.70
2022-08-20T18:30:58.571Z,25.45
2022-08-20T18:33:42.550Z,25.69
2022-08-20T18:36:22.436Z,25.54
2022-08-20T18:39:05.960Z,25.30
2022-08-20T18:41:57.066Z,25.57
2022-08-20T18:44:38.922Z,24.85
2022-08-20T18:47:18.536Z,24.88
2022-08-20T18:49:45.182Z,24.94
2022-08-20T18:52:26.293Z,24.82
2022-08-20T18:54:59.499Z,24.63
2022-08-20T18:57:32.100Z,24.66
2022-08-20T19:00:17.203Z,24.67
2022-08-20T19:02:58.683Z,24.38
2022-08-20T19:05:36.874Z,24.52
2022-08-20T19:08:06.293Z,24.18
2022-08-20T19:10:36.100Z,24.25
2022-08-20T19:13:24.461Z,24.22
2022-08-20T19:15:59.225Z,23.92
2022-08-20T19:18:37.804Z,24.17
2022-08-20T19:21:05.543Z,24.01
2022-08-20T19:23:48.750Z,23.86
2022-08-20T19:26:25.927Z,23.69
2022-08-20T19:29:02.068Z,23.82
2022-08-20T19:31:33.017Z,23.73
2022-08-20T19:34:19.025Z,23.63
2022-08-20T19:36:54.534Z,23.62
2022-08-20T19:39:25.658Z,23.45
2022-08-20T19:41:55.591Z,23.55
2022-08-20T19:44:34.967Z,23.42
2022-08-20T19:47:02.595Z,23.54
2022-08-20T19:49:55.572Z,23.38
2022-08-20T19:53:04.084Z,23.03
2022-08-20T19:55:35.448Z,23.20
2022-08-20T19:58:07.174Z,23.36
2022-08-20T20:00:43.329Z,23.03
2022-08-20T20:03:17.868Z,23.13
2022-08-20T20:06:16.663Z,23.09
2022-08-20T20:08:59.218Z,23.04
2022-08-20T20:11:44.604Z,22.96
2022-08-20T20:14:13.562Z,22.92
2022-08-20T20:16:41.176Z,22.98
2022-08-20T20:19:28.590Z,22.94
2022-08-20T20:22:19.121Z,23.09
2022-08-20T20:25:19.443Z,22.82
2022-08-20T20:27:51.906Z,22.94
2022-08-20T20:30:33.480Z,22.92
2022-08-20T20:33:10.690Z,22.93
2022-08-20T20:35:37.523Z,22.90
2022-08-20T20:38:08.094Z,22.72
2022-08-20T20:40:49.503Z,22.47
2022-08-20T20:43:42.990Z,22.48
2022-08-20T20:46:15.650Z,22.37
2022-08-20T20:48:46.893Z,22.29
2022-08-20T20:51:16.402Z,22.38
2022-08-20T20:53:54.280Z,22.16
2022-08-20T20:56:29.958Z,22.41
2022-08-20T20:58:56.972Z,22.06
2022-08-20T21:01:27.353Z,21.97
2022-08-20T21:04:11.214Z,22.01
2022-08-20T21:06:38.750Z,21.93
2022-08-20T21:09:05.617Z,22.13
2022-08-20T21:11:32.260Z,21.91
2022-08-20T21:13:58.881Z,21.78
2022-08-20T21:16:25.545Z,21.93
2022-08-20T21:18:52.268Z,21.96
2022-08-20T21:21:18.948Z,21.73
2022-08-20T21:23:45.636Z,21.51
2022-08-20T21:26:12.459Z,21.78
2022-08-20T21:28:39.640Z,21.48
2022-08-20T21:31:06.338Z,21.37
2022-08-20T21:33:32.989Z,21.30
2022-08-20T21:35:59.693Z,21.44
2022-08-20T21:38:26.478Z,21.33
2022-08-20T21:40:53.154Z,20.99
2022-08-20T21:43:24.411Z,21.23
2022-08-20T21:45:51.178Z,21.17
2022-08-20T21:48:17.875Z,21.02
2022-08-20T21:50:44.545Z,21.15
2022-08-20T21:53:11.373Z,21.04
2022-08-20T21:55:40.608Z,20.99
2022-08-20T21:58:08.505Z,20.92
2022-08-20T22:00:45.215Z,20.85
2022-08-20T22:03:13.363Z,20.75
2022-08-20T22:05:41.685Z,20.78
2022-08-20T22:08:09.433Z,20.87
2022-08-20T22:10:36.142Z,20.65
2022-08-20T22:13:03.189Z,20.54
2022-08-20T22:15:29.872Z,20.52
2022-08-20T22:17:56.533Z,20.62
2022-08-20T22:20:25.180Z,20.39
2022-08-20T22:22:52.007Z,20.60
2022-08-20T22:25:18.771Z,20.50
2022-08-20T22:27:45.880Z,20.27
2022-08-20T22:30:12.800Z,20.49
2022-08-20T22:32:51.397Z,20.17
2022-08-20T22:35:19.537Z,20.36
2022-08-20T22:37:46.324Z,20.35
2022-08-20T22:40:13.151Z,20.38
2022-08-20T22:42:39.825Z,20.18
2022-08-20T22:45:14.476Z,20.31
2022-08-20T22:47:43.123Z,20.12
2022-08-20T22:50:12.059Z,20.34
2022-08-20T22:52:40.240Z,20.17
2022-08-20T22:55:07.261Z,20.06
2022-08-20T22:57:37.255Z,20.23
2022-08-20T23:00:11.864Z,20.17
2022-08-20T23:02:41.150Z,20.05
2022-08-20T23:05:13.746Z,20.10
2022-08-20T23:07:41.196Z,20.27
2022-08-20T23:10:08.648Z,20.19
2022-08-20T23:12:35.487Z,20.32
2022-08-20T23:15:02.313Z,20.10
2022-08-20T23:17:28.995Z,19.98
2022-08-20T23:19:55.672Z,19.91
2022-08-20T23:22:22.520Z,19.85
2022-08-20T23:24:49.382Z,20.01
2022-08-20T23:27:20.073Z,19.85
2022-08-20T23:29:47.481Z,19.65
2022-08-20T23:32:14.101Z,19.84
2022-08-20T23:34:40.785Z,19.77
2022-08-20T23:37:08.281Z,19.66
2022-08-20T23:39:35.023Z,19.72
2022-08-20T23:42:02.617Z,19.54
2022-08-20T23:44:29.467Z,19.51
2022-08-20T23:46:58.491Z,19.46
2022-08-20T23:49:26.619Z,19.38
2022-08-20T23:51:55.920Z,19.40
2022-08-20T23:54:22.586Z,19.46
2022-08-20T23:56:49.601Z,19.44
2022-08-20T23:59:16.800Z,19.32
